Nixon, NV (89424)

12:25 PM PST on January 22, 2017 (GMT -0800)
Palomino Valley (Off Pyramid Highway) | | Change Station
Active Advisory: Winter Storm Warning

Elev 4410 ft 39.83 °N, 119.64 °W | Updated 18 seconds ago

Overcast
Overcast
40.8 °F
Feels Like 32 °F
N
19.0
Wind Variable Wind from North
Gusts 25.0 mph

Today
High -- | Low -- °F
--% Chance of Precip.
Yesterday
High -- | Low -- °F
Precip. -- in
Pressure 29.63 in
Visibility 10.0 miles
Clouds Clear
Windchill 32 °F
Dew Point 30 °F
Humidity 65%
Rainfall 0.00 in
Snow Depth Not available.
7:13 AM 5:05 PM
Waning Crescent, 24% visible
METAR KRTS 221955Z AUTO 24012G21KT 10SM CLR 03/M04 A2963 RMK AO2 P0001
Pressure 29.63 in
Visibility 10.0 miles
Clouds Clear
Windchill 32 °F
Dew Point 30 °F
Humidity 65%
Rainfall 0.00 in
Snow Depth Not available.
7:13 AM 5:05 PM
Waning Crescent, 24% visible
METAR KRTS 221955Z AUTO 24012G21KT 10SM CLR 03/M04 A2963 RMK AO2 P0001

Get Your Daily Forecast Email!

Thanks for signing up!

Be on the lookout for a verification email in your inbox.

You'll start receiving the daily forecast at 8 AM.

×

10-Day Weather Forecast

Almanac

Astronomy

Jan. 22, 2017 Rise Set
Actual Time
Civil Twilight
Nautical Twilight
Astronomical Twilight
Moon
Length of Visible Light
Length of Day
Tomorrow will be .
, % of the Moon is Illuminated

Today's Extremes

State Highs State Lows

Community

WunderPhotos

Upload Photos

1,962,540 photos uploaded!

WunderBlog® & News

Nearby

Air Quality

  Air Quality AQ Index Pollutant
Not available.

Snow Depth

Station Depth Elevation

Earthquake Activity

City Distance Mag. Time & Date
Minimum magnitude displayed is 2.5.

Coastal Water Temperatures

Place Temperature

Stations

Nearby Weather Stations

Station Location Temp. Windchill Dew Point Humidity Wind Precip. Elev Updated Type
                   

Watches & Warnings

Winter Storm Warning
Issued: 9:19 AM PST Jan. 22, 2017 – National Weather Service

... Winter Storm Warning remains in effect until 4 am PST Monday...

* timing: rain or a mix of rain and snow in the valleys will
transition back to snow this evening and overnight behind a
cold front.

* Snow accumulations: 2 to 5 inches... mainly tonight. Up to 8
inches possible above 5500 feet.

* Snow levels: 4500 to 5000 feet... falling to valley floors
tonight.

* Impacts: expect hazardous travel conditions and chain or snow
tire restrictions due to slick roads... mainly tonight.

Precautionary/preparedness actions...

If traveling consider alternate plans. Remember to carry tire
chains, extra food, water and clothing.



Http://weather.Gov/Reno